Time;durP1;ratioP1;P1;durP2;ratioP2;P2;SDS_P1;SDS_P2;PMS_P1;PMS_P2;Temp;Humidity;BMP_temperature;BMP_pressure;BME280_temperature;BME280_humidity;BME280_pressure;Samples;Min_cycle;Max_cycle;Signal;HPM_P1;HPM_P2
2022/08/01 01:30:33;;;;;;;6.60;5.47;;;;;;;19.28;100.00;100462.94;4959898;28;20043;-79
2022/08/01 01:33:02;;;;;;;5.75;5.25;;;;;;;19.31;100.00;100459.19;4923787;28;20046;-78
2022/08/01 01:35:35;;;;;;;6.00;5.40;;;;;;;19.26;100.00;100456.81;4953446;28;20484;-79
2022/08/01 01:38:10;;;;;;;6.25;5.65;;;;;;;19.18;100.00;100450.19;4957784;28;20448;-79
2022/08/01 01:40:40;;;;;;;6.32;5.07;;;;;;;19.09;100.00;100457.81;4940909;28;20511;-79
2022/08/01 01:43:10;;;;;;;6.15;5.55;;;;;;;19.02;100.00;100458.25;4955309;28;20043;-79
2022/08/01 01:45:37;;;;;;;5.85;5.28;;;;;;;18.93;100.00;100443.59;4934183;28;20039;-78
2022/08/01 01:48:06;;;;;;;5.72;5.18;;;;;;;18.84;100.00;100441.47;4943475;28;20468;-78
2022/08/01 01:50:33;;;;;;;5.75;5.25;;;;;;;18.81;100.00;100446.97;4968064;28;20042;-78
2022/08/01 01:53:01;;;;;;;5.60;4.97;;;;;;;18.73;100.00;100438.53;4930315;29;20039;-78
2022/08/01 01:55:28;;;;;;;5.50;5.00;;;;;;;18.66;100.00;100437.16;4939325;28;20077;-78
2022/08/01 01:57:56;;;;;;;5.50;5.00;;;;;;;18.60;100.00;100430.31;4953881;28;20681;-79
2022/08/01 02:00:26;;;;;;;6.07;5.47;;;;;;;18.55;100.00;100427.03;4958215;28;20051;-78
2022/08/01 02:02:53;;;;;;;6.03;5.43;;;;;;;18.49;100.00;100436.25;4953620;28;20043;-78
2022/08/01 02:05:20;;;;;;;4.97;4.50;;;;;;;18.43;100.00;100443.78;4926458;28;20062;-78
2022/08/01 02:07:48;;;;;;;5.70;5.05;;;;;;;18.36;100.00;100429.91;4967541;28;20639;-78
2022/08/01 02:10:15;;;;;;;5.57;5.07;;;;;;;18.34;100.00;100439.81;4932007;28;20130;-78
2022/08/01 02:12:45;;;;;;;5.80;5.20;;;;;;;18.30;100.00;100438.25;4946573;28;20047;-78
2022/08/01 02:15:13;;;;;;;5.43;4.93;;;;;;;18.23;100.00;100439.53;4930228;28;20046;-78
2022/08/01 02:17:43;;;;;;;6.13;5.55;;;;;;;18.19;100.00;100429.97;4947097;28;20038;-78
2022/08/01 02:20:10;;;;;;;5.75;5.25;;;;;;;18.10;100.00;100434.03;4944059;28;20046;-78
2022/08/01 02:22:41;;;;;;;6.90;5.43;;;;;;;18.04;100.00;100441.50;4921840;28;21848;-77
2022/08/01 02:25:27;;;;;;;5.57;5.07;;;;;;;17.96;100.00;100431.22;4935798;28;20038;-78
2022/08/01 02:28:06;;;;;;;6.35;5.25;;;;;;;17.84;100.00;100438.13;4952760;28;20059;-78
2022/08/01 02:30:35;;;;;;;6.00;5.35;;;;;;;17.77;100.00;100436.72;4933480;28;20046;-78
2022/08/01 02:33:09;;;;;;;6.00;5.40;;;;;;;17.67;100.00;100433.66;4933060;28;20045;-78
2022/08/01 02:35:43;;;;;;;6.20;5.05;;;;;;;17.58;100.00;100433.28;4947204;28;20404;-77
2022/08/01 02:38:40;;;;;;;5.88;5.38;;;;;;;17.51;100.00;100439.88;4947960;28;20084;-78
2022/08/01 02:41:09;;;;;;;6.97;5.43;;;;;;;17.43;100.00;100448.31;4958200;28;20066;-78
2022/08/01 02:43:37;;;;;;;6.57;5.65;;;;;;;17.37;100.00;100444.13;4936129;28;20038;-78
2022/08/01 02:46:06;;;;;;;6.13;5.43;;;;;;;17.31;100.00;100449.78;4930994;28;20047;-79
2022/08/01 02:48:34;;;;;;;6.43;5.38;;;;;;;17.28;100.00;100446.41;4931676;28;20046;-78
2022/08/01 02:51:02;;;;;;;6.28;5.53;;;;;;;17.19;100.00;100447.75;4968163;28;20046;-79
2022/08/01 02:53:35;;;;;;;7.20;5.90;;;;;;;17.13;100.00;100445.38;4971859;28;20109;-79
2022/08/01 02:56:10;;;;;;;6.20;5.60;;;;;;;17.08;100.00;100450.97;4936870;28;20503;-78
2022/08/01 02:58:37;;;;;;;6.50;5.90;;;;;;;17.01;100.00;100444.22;4936927;28;20047;-78
2022/08/01 03:01:06;;;;;;;7.57;5.93;;;;;;;16.96;100.00;100451.56;4946692;28;20058;-77
2022/08/01 03:03:34;;;;;;;6.25;5.65;;;;;;;16.92;100.00;100449.16;4937454;28;20194;-78
2022/08/01 03:06:02;;;;;;;6.15;5.55;;;;;;;16.87;100.00;100455.56;4951875;28;20042;-78
2022/08/01 03:08:29;;;;;;;6.35;5.75;;;;;;;16.84;100.00;100450.41;4933167;28;20046;-78
2022/08/01 03:10:58;;;;;;;6.20;5.50;;;;;;;16.84;100.00;100455.72;4964582;28;20042;-78
2022/08/01 03:13:25;;;;;;;5.90;5.40;;;;;;;16.80;100.00;100458.63;4956566;28;20050;-78
2022/08/01 03:15:53;;;;;;;6.30;5.70;;;;;;;16.81;100.00;100463.88;4962167;28;20046;-78
2022/08/01 03:18:22;;;;;;;6.50;5.93;;;;;;;16.80;100.00;100459.47;4953825;28;20049;-78
2022/08/01 03:20:50;;;;;;;6.18;5.57;;;;;;;16.77;100.00;100459.63;4932738;28;20049;-78
2022/08/01 03:23:17;;;;;;;6.68;6.00;;;;;;;16.82;100.00;100457.63;4951236;28;20035;-78
2022/08/01 03:25:44;;;;;;;6.72;6.13;;;;;;;16.85;100.00;100457.47;4936349;28;20039;-78
2022/08/01 03:28:13;;;;;;;6.80;6.10;;;;;;;16.85;100.00;100456.59;4949545;28;20102;-79
2022/08/01 03:30:40;;;;;;;7.30;6.60;;;;;;;16.88;100.00;100451.97;4948084;28;20062;-79
2022/08/01 03:33:07;;;;;;;8.07;7.18;;;;;;;16.93;100.00;100466.91;4970561;28;20063;-79
2022/08/01 03:35:37;;;;;;;7.07;6.18;;;;;;;16.92;100.00;100458.03;4941038;28;20031;-79
2022/08/01 03:38:05;;;;;;;6.93;6.32;;;;;;;17.01;100.00;100464.72;4953892;28;20066;-79
2022/08/01 03:40:48;;;;;;;7.93;7.13;;;;;;;17.05;100.00;100467.13;4956353;28;20053;-78
2022/08/01 03:43:19;;;;;;;8.15;7.13;;;;;;;17.09;100.00;100463.38;4958933;28;20567;-78
2022/08/01 03:45:49;;;;;;;6.40;5.80;;;;;;;17.16;100.00;100469.28;4952041;28;20062;-78
2022/08/01 03:48:17;;;;;;;7.07;6.40;;;;;;;17.25;100.00;100467.94;4943929;28;20538;-78
2022/08/01 03:50:50;;;;;;;7.05;6.45;;;;;;;17.31;100.00;100465.81;4956769;28;20098;-78
2022/08/01 03:53:21;;;;;;;7.28;6.57;;;;;;;17.37;100.00;100475.31;4937675;28;20043;-78
2022/08/01 03:55:48;;;;;;;6.45;5.88;;;;;;;17.41;100.00;100472.41;4958724;28;20078;-78
2022/08/01 03:58:15;;;;;;;7.55;6.85;;;;;;;17.47;100.00;100468.53;4953745;28;20043;-78
2022/08/01 04:00:42;;;;;;;7.57;6.88;;;;;;;17.52;100.00;100473.66;4937216;28;20510;-77
2022/08/01 04:03:10;;;;;;;8.38;7.57;;;;;;;17.55;100.00;100479.69;4950784;28;20036;-78
2022/08/01 04:05:36;;;;;;;8.20;7.50;;;;;;;17.61;100.00;100478.53;4938448;28;20038;-77
2022/08/01 04:08:03;;;;;;;7.70;6.93;;;;;;;17.67;100.00;100471.06;4950041;28;20508;-78
2022/08/01 04:10:30;;;;;;;8.02;7.18;;;;;;;17.71;100.00;100471.78;4951194;28;20043;-77
2022/08/01 04:12:57;;;;;;;10.07;7.00;;;;;;;17.76;100.00;100476.88;4969727;28;20125;-78
2022/08/01 04:15:24;;;;;;;7.32;6.63;;;;;;;17.78;100.00;100477.66;4972381;28;20043;-78
2022/08/01 04:17:50;;;;;;;6.78;6.18;;;;;;;17.80;100.00;100473.09;4945136;29;20043;-78
2022/08/01 04:20:17;;;;;;;7.70;6.90;;;;;;;17.85;100.00;100473.72;4973295;28;20082;-78
2022/08/01 04:22:44;;;;;;;7.20;6.43;;;;;;;17.88;100.00;100478.91;4939501;28;20047;-78
2022/08/01 04:25:17;;;;;;;7.82;6.55;;;;;;;17.92;100.00;100480.47;4951728;28;20079;-78
2022/08/01 04:27:47;;;;;;;6.95;6.22;;;;;;;17.96;100.00;100482.88;4971604;28;20042;-78
2022/08/01 04:30:23;;;;;;;7.28;6.57;;;;;;;18.00;100.00;100481.78;4952691;28;20059;-78
2022/08/01 04:32:50;;;;;;;6.70;6.10;;;;;;;18.04;100.00;100487.81;4968990;28;20106;-78
2022/08/01 04:35:18;;;;;;;7.78;6.97;;;;;;;18.13;100.00;100479.28;4976521;28;20041;-78
2022/08/01 04:38:06;;;;;;;8.05;7.05;;;;;;;18.13;100.00;100479.28;4941929;28;20574;-78
2022/08/01 04:40:35;;;;;;;6.93;6.32;;;;;;;18.14;100.00;100480.16;4953251;28;20053;-78
2022/08/01 04:43:02;;;;;;;8.05;7.25;;;;;;;18.16;100.00;100481.81;4954081;28;20046;-78
2022/08/01 04:45:29;;;;;;;8.18;7.35;;;;;;;18.22;100.00;100484.13;4967984;28;20034;-78
2022/08/01 04:47:57;;;;;;;7.40;6.80;;;;;;;18.28;100.00;100493.66;4951489;28;20631;-77
2022/08/01 04:50:24;;;;;;;6.85;6.25;;;;;;;18.29;100.00;100482.84;4931231;28;20054;-77
2022/08/01 04:52:51;;;;;;;6.82;6.13;;;;;;;18.30;100.00;100489.06;4941668;28;20039;-77
2022/08/01 04:55:18;;;;;;;9.52;6.97;;;;;;;18.37;100.00;100486.91;4952469;28;20245;-77
2022/08/01 04:57:46;;;;;;;7.03;6.32;;;;;;;18.43;100.00;100492.81;4953046;28;20118;-77
2022/08/01 05:00:13;;;;;;;6.70;6.10;;;;;;;18.50;100.00;100491.50;4927317;28;20050;-77
2022/08/01 05:02:40;;;;;;;6.90;6.20;;;;;;;18.63;100.00;100490.81;4942621;28;20040;-77
2022/08/01 05:05:07;;;;;;;7.90;7.10;;;;;;;18.69;100.00;100488.69;4950367;28;20114;-77
2022/08/01 05:07:35;;;;;;;6.93;6.32;;;;;;;18.72;100.00;100487.66;4951319;28;20093;-78
2022/08/01 05:10:11;;;;;;;7.72;6.90;;;;;;;18.73;100.00;100487.56;4946179;28;20039;-77
2022/08/01 05:12:38;;;;;;;6.90;6.20;;;;;;;18.76;100.00;100492.75;4948546;28;20039;-77
2022/08/01 05:15:06;;;;;;;7.65;6.65;;;;;;;18.84;100.00;100493.19;4942146;28;20094;-78
2022/08/01 05:17:41;;;;;;;7.05;6.35;;;;;;;18.98;100.00;100495.03;4968922;28;20089;-77
2022/08/01 05:20:09;;;;;;;8.10;6.30;;;;;;;18.93;100.00;100499.81;4948920;28;20035;-77
2022/08/01 05:22:36;;;;;;;7.10;6.40;;;;;;;18.97;100.00;100500.50;4954392;28;20042;-78
2022/08/01 05:25:04;;;;;;;6.97;6.38;;;;;;;18.90;100.00;100501.78;4949667;28;20421;-77
2022/08/01 05:27:31;;;;;;;7.57;6.78;;;;;;;18.89;100.00;100500.94;4961313;28;20049;-77
2022/08/01 05:29:59;;;;;;;8.43;6.68;;;;;;;18.86;100.00;100495.75;4941868;28;20083;-77
2022/08/01 05:32:27;;;;;;;7.72;6.97;;;;;;;18.98;100.00;100505.75;4945477;28;20564;-77
2022/08/01 05:34:53;;;;;;;7.90;7.07;;;;;;;18.99;100.00;100501.25;4956951;28;20031;-77
2022/08/01 05:37:20;;;;;;;7.20;6.50;;;;;;;18.99;100.00;100502.13;4945946;28;20062;-77
2022/08/01 05:39:46;;;;;;;9.20;8.20;;;;;;;18.93;100.00;100497.13;4953062;28;20050;-78
2022/08/01 05:42:13;;;;;;;8.25;7.30;;;;;;;18.93;100.00;100496.28;4961971;28;20043;-78
2022/08/01 05:44:40;;;;;;;8.02;7.20;;;;;;;18.97;100.00;100504.03;4934203;28;20035;-77
2022/08/01 05:47:06;;;;;;;8.52;7.70;;;;;;;18.88;100.00;100506.38;4967232;28;20042;-77
2022/08/01 05:49:33;;;;;;;9.40;7.60;;;;;;;18.83;100.00;100506.63;4952224;28;20134;-78
2022/08/01 05:52:01;;;;;;;8.90;8.05;;;;;;;18.81;100.00;100503.19;4948117;28;20047;-77
2022/08/01 05:54:29;;;;;;;8.43;7.63;;;;;;;18.83;100.00;100514.66;4955243;28;20035;-77
2022/08/01 05:56:59;;;;;;;14.23;8.05;;;;;;;18.82;100.00;100508.44;4948570;28;20053;-78
2022/08/01 05:59:26;;;;;;;11.05;8.07;;;;;;;18.82;100.00;100510.25;4915877;28;20323;-79
2022/08/01 06:01:52;;;;;;;8.05;7.05;;;;;;;18.86;100.00;100516.31;4922343;28;20047;-77
2022/08/01 06:04:19;;;;;;;8.75;7.85;;;;;;;18.87;100.00;100518.91;4952538;28;20081;-77
2022/08/01 06:06:46;;;;;;;9.68;7.93;;;;;;;18.92;100.00;100523.97;4941019;28;20046;-77
2022/08/01 06:09:13;;;;;;;9.60;8.07;;;;;;;19.00;100.00;100516.34;4970154;28;20047;-79
2022/08/01 06:11:39;;;;;;;9.10;8.10;;;;;;;19.01;100.00;100528.81;4933598;28;20090;-77
2022/08/01 06:14:06;;;;;;;8.55;7.65;;;;;;;18.99;100.00;100520.84;4958409;28;20612;-77
2022/08/01 06:16:33;;;;;;;8.90;7.70;;;;;;;19.00;100.00;100529.75;4946976;28;20038;-77
2022/08/01 06:18:59;;;;;;;7.38;6.68;;;;;;;19.01;100.00;100544.88;4949831;28;20066;-78
2022/08/01 06:21:26;;;;;;;8.43;6.95;;;;;;;19.06;100.00;100542.78;4961315;28;20062;-78
2022/08/01 06:23:52;;;;;;;8.43;7.38;;;;;;;19.10;100.00;100531.84;4960013;28;20058;-79
2022/08/01 06:26:19;;;;;;;8.07;7.28;;;;;;;19.09;100.00;100543.50;4947523;28;20051;-77
2022/08/01 06:28:46;;;;;;;7.55;6.70;;;;;;;19.08;100.00;100544.41;4947141;28;20035;-77
2022/08/01 06:31:14;;;;;;;7.72;6.93;;;;;;;19.01;100.00;100543.06;4967795;28;20656;-77
2022/08/01 06:33:41;;;;;;;9.40;7.85;;;;;;;19.02;100.00;100542.13;4950926;28;20047;-77
2022/08/01 06:36:09;;;;;;;9.35;7.22;;;;;;;19.11;100.00;100536.22;4955107;28;21542;-77
2022/08/01 06:38:35;;;;;;;119.22;24.08;;;;;;;19.12;100.00;100534.41;4935404;28;20130;-77
2022/08/01 06:41:02;;;;;;;10.18;7.10;;;;;;;19.24;100.00;100533.69;4946971;28;20051;-78
2022/08/01 06:43:29;;;;;;;7.20;6.00;;;;;;;19.42;100.00;100537.09;4934992;28;20543;-77
2022/08/01 06:45:58;;;;;;;7.82;6.20;;;;;;;19.91;100.00;100526.16;4927585;28;20094;-77
2022/08/01 06:48:26;;;;;;;6.55;5.85;;;;;;;20.65;100.00;100534.00;4948420;28;20069;-77
2022/08/01 06:51:07;;;;;;;14.13;6.53;;;;;;;21.42;100.00;100524.47;4942573;28;20073;-78
2022/08/01 06:53:38;;;;;;;6.18;5.57;;;;;;;22.07;99.90;100532.56;4947875;28;20035;-77
2022/08/01 06:56:05;;;;;;;4.88;3.92;;;;;;;22.77;94.77;100526.63;4949003;28;20027;-77
2022/08/01 06:58:32;;;;;;;21.10;7.35;;;;;;;23.10;87.67;100527.81;4935637;28;20452;-77
2022/08/01 07:00:58;;;;;;;4.75;4.25;;;;;;;23.21;84.25;100527.91;4941801;28;20047;-78
2022/08/01 07:03:26;;;;;;;4.65;4.25;;;;;;;22.91;84.81;100534.56;4950399;28;20074;-78
2022/08/01 07:06:14;;;;;;;4.07;3.67;;;;;;;22.70;85.33;100539.69;4956110;28;20102;-77
2022/08/01 07:08:41;;;;;;;3.70;3.40;;;;;;;22.44;86.47;100538.84;4928591;28;20051;-78
2022/08/01 07:11:08;;;;;;;3.55;3.20;;;;;;;22.28;84.96;100537.38;4973517;28;20031;-78
2022/08/01 07:13:34;;;;;;;3.67;3.08;;;;;;;22.10;88.11;100536.84;4958693;28;20046;-78
2022/08/01 07:16:14;;;;;;;15.38;5.38;;;;;;;21.95;89.66;100535.22;4955645;28;20057;-78
2022/08/01 07:18:41;;;;;;;4.18;3.78;;;;;;;21.97;89.40;100538.66;4955488;28;20507;-78
2022/08/01 07:21:07;;;;;;;5.35;4.28;;;;;;;21.93;87.64;100540.69;4939383;28;20508;-77
2022/08/01 07:23:54;;;;;;;4.38;3.58;;;;;;;21.54;91.17;100539.78;4931249;28;20726;-77
2022/08/01 07:26:22;;;;;;;3.50;3.20;;;;;;;21.58;91.87;100543.13;4934139;28;20049;-78
2022/08/01 07:28:48;;;;;;;3.70;3.38;;;;;;;21.60;92.25;100546.56;4948518;28;20098;-78
2022/08/01 07:31:15;;;;;;;3.13;2.83;;;;;;;21.56;90.23;100542.38;4949105;28;20100;-78
2022/08/01 07:33:41;;;;;;;3.70;3.40;;;;;;;21.42;92.70;100537.91;4931017;28;20472;-78
2022/08/01 07:36:18;;;;;;;3.60;3.30;;;;;;;21.33;93.66;100534.03;4972474;28;20039;-78
2022/08/01 07:38:45;;;;;;;4.00;3.60;;;;;;;21.40;93.76;100536.31;4953175;28;20312;-78
2022/08/01 07:41:12;;;;;;;3.63;3.33;;;;;;;21.35;92.22;100537.47;4943691;28;20043;-79
2022/08/01 07:43:39;;;;;;;56.58;10.35;;;;;;;21.25;94.40;100535.47;4969255;28;20038;-78
2022/08/01 07:46:11;;;;;;;3.88;3.58;;;;;;;21.29;94.04;100534.34;4939581;28;20062;-78
2022/08/01 07:48:37;;;;;;;3.88;3.47;;;;;;;21.18;93.75;100535.00;4931613;28;20038;-78
2022/08/01 07:51:04;;;;;;;3.60;3.30;;;;;;;21.06;95.72;100538.53;4923678;28;20047;-78
2022/08/01 07:53:31;;;;;;;4.65;3.70;;;;;;;21.08;95.10;100545.50;4943670;28;20404;-78
2022/08/01 07:55:58;;;;;;;3.45;3.00;;;;;;;21.08;95.78;100552.69;4933886;28;20051;-78
2022/08/01 07:58:25;;;;;;;4.15;3.75;;;;;;;21.23;95.31;100553.53;4968316;28;20050;-78
2022/08/01 08:00:52;;;;;;;3.90;3.45;;;;;;;21.24;95.95;100558.78;4930433;28;20039;-78
2022/08/01 08:03:18;;;;;;;3.70;3.40;;;;;;;21.47;95.99;100559.13;4938178;28;20042;-77
2022/08/01 08:05:45;;;;;;;3.63;3.33;;;;;;;21.71;93.62;100562.84;4967071;28;20031;-77
2022/08/01 08:08:26;;;;;;;3.75;3.45;;;;;;;21.85;91.89;100557.34;4917823;28;20075;-78
2022/08/01 08:10:52;;;;;;;3.53;3.20;;;;;;;21.83;92.06;100561.13;4932356;28;20500;-78
2022/08/01 08:13:19;;;;;;;4.13;3.53;;;;;;;21.71;92.64;100565.53;4933200;28;20047;-78
2022/08/01 08:15:47;;;;;;;3.50;3.00;;;;;;;21.61;92.10;100567.13;4950986;28;20042;-78
2022/08/01 08:18:15;;;;;;;4.75;3.08;;;;;;;21.52;92.78;100567.72;4976021;23;20130;-76
2022/08/01 08:20:41;;;;;;;3.28;2.97;;;;;;;21.47;93.32;100569.88;4990359;28;20026;-77
2022/08/01 08:26:10;;;;;;;7.85;3.22;;;;;;;21.46;92.63;100563.63;4954273;28;20046;-76
2022/08/01 08:28:37;;;;;;;3.00;2.70;;;;;;;21.63;91.72;100568.72;4969736;28;20046;-79
2022/08/01 08:31:06;;;;;;;3.25;2.72;;;;;;;21.66;89.76;100570.34;4943383;28;20068;-80
2022/08/01 08:33:51;;;;;;;3.75;2.78;;;;;;;21.79;89.68;100567.69;4960791;28;20522;-77
2022/08/01 08:36:18;;;;;;;7.22;3.13;;;;;;;21.91;89.22;100567.69;4968350;28;20487;-78
2022/08/01 08:38:44;;;;;;;2.85;2.55;;;;;;;21.98;86.34;100567.28;4964374;28;20057;-79
2022/08/01 08:41:11;;;;;;;69.53;13.00;;;;;;;21.92;88.04;100563.16;4985882;28;20061;-78
2022/08/01 08:43:41;;;;;;;9.20;3.70;;;;;;;21.91;87.24;100581.13;4968011;28;20452;-78
2022/08/01 08:46:08;;;;;;;3.53;2.53;;;;;;;22.03;85.84;100576.75;4958235;28;20042;-79
2022/08/01 08:48:36;;;;;;;3.78;2.53;;;;;;;22.02;85.64;100575.00;4954393;28;20046;-79
2022/08/01 08:51:03;;;;;;;2.30;2.10;;;;;;;22.09;85.51;100573.66;4960340;28;20046;-79
2022/08/01 08:53:31;;;;;;;2.60;2.33;;;;;;;22.04;83.98;100577.63;4977304;28;20046;-79
2022/08/01 08:56:00;;;;;;;2.95;2.38;;;;;;;22.23;85.15;100579.91;4941709;28;20054;-78
2022/08/01 08:58:28;;;;;;;2.20;2.00;;;;;;;22.37;83.93;100586.06;4951662;28;20431;-79
2022/08/01 09:00:57;;;;;;;3.33;2.40;;;;;;;22.54;83.29;100587.53;4976102;28;20042;-79
2022/08/01 09:03:24;;;;;;;3.35;2.10;;;;;;;22.79;81.69;100592.03;4979681;28;20042;-79
2022/08/01 09:05:51;;;;;;;2.47;2.28;;;;;;;23.07;79.62;100587.34;4975573;28;20086;-78
2022/08/01 09:08:18;;;;;;;2.47;2.28;;;;;;;23.28;78.16;100594.69;4992255;28;20447;-77
2022/08/01 09:10:44;;;;;;;2.40;2.20;;;;;;;23.22;77.00;100589.75;4979547;28;20764;-77
2022/08/01 09:13:13;;;;;;;2.42;2.22;;;;;;;23.14;77.83;100589.47;4960037;28;20042;-79
2022/08/01 09:15:44;;;;;;;2.65;2.35;;;;;;;23.02;79.16;100599.31;4977805;28;20037;-78
2022/08/01 09:18:29;;;;;;;2.65;2.40;;;;;;;22.99;79.22;100591.47;4961637;28;20120;-79
2022/08/01 09:21:19;;;;;;;3.25;2.30;;;;;;;22.86;78.91;100600.53;4939420;28;20097;-77
2022/08/01 09:23:50;;;;;;;2.70;2.50;;;;;;;22.67;79.31;100606.34;4979961;28;20099;-77
2022/08/01 09:26:35;;;;;;;2.63;2.42;;;;;;;22.69;80.35;100604.41;4975078;28;20045;-80
2022/08/01 09:29:04;;;;;;;2.05;1.85;;;;;;;22.71;79.07;100607.88;4948898;28;20049;-78
2022/08/01 09:31:41;;;;;;;2.08;1.88;;;;;;;22.65;79.59;100613.69;4971745;28;20033;-79
2022/08/01 09:34:13;;;;;;;2.28;2.08;;;;;;;22.58;80.15;100625.88;4968306;28;20100;-78
2022/08/01 09:37:01;;;;;;;2.72;1.88;;;;;;;22.39;81.46;100621.78;4973323;28;20615;-80
2022/08/01 09:39:30;;;;;;;3.15;2.15;;;;;;;22.35;82.13;100628.34;4975978;28;20042;-79
2022/08/01 09:41:58;;;;;;;2.95;2.00;;;;;;;22.31;83.86;100617.91;4958847;28;20088;-78
2022/08/01 09:44:41;;;;;;;3.75;2.08;;;;;;;22.49;82.95;100624.69;4951583;28;20050;-77
2022/08/01 09:47:20;;;;;;;2.28;2.08;;;;;;;22.66;81.56;100618.97;4984930;28;20069;-79
2022/08/01 09:49:56;;;;;;;1.80;1.70;;;;;;;22.85;81.38;100626.59;4967737;28;20046;-77
2022/08/01 09:52:26;;;;;;;2.25;1.80;;;;;;;23.01;81.37;100624.53;4960809;28;20046;-78
2022/08/01 09:55:04;;;;;;;2.35;2.13;;;;;;;23.25;78.19;100619.19;4961470;28;20247;-78
2022/08/01 09:57:30;;;;;;;2.42;1.73;;;;;;;23.45;75.21;100628.47;4960184;28;20042;-79
2022/08/01 09:59:59;;;;;;;1.70;1.60;;;;;;;23.62;75.64;100627.22;4951097;28;20073;-77
2022/08/01 10:02:34;;;;;;;1.55;1.45;;;;;;;23.80;74.43;100620.47;4972697;28;20128;-78
2022/08/01 10:05:06;;;;;;;29.30;5.63;;;;;;;23.95;75.07;100631.91;4953753;28;20054;-79
2022/08/01 10:07:36;;;;;;;2.03;1.83;;;;;;;23.99;73.36;100622.59;4944606;28;20077;-79
2022/08/01 10:10:14;;;;;;;1.80;1.50;;;;;;;23.79;74.72;100634.03;4962440;28;20049;-78
2022/08/01 10:12:42;;;;;;;2.03;1.75;;;;;;;23.67;74.49;100635.84;4969046;28;20043;-80
2022/08/01 10:15:11;;;;;;;2.40;1.85;;;;;;;23.44;76.67;100639.38;4976155;28;20034;-78
2022/08/01 10:17:41;;;;;;;1.70;1.60;;;;;;;23.15;77.11;100642.41;4942045;28;20594;-78
2022/08/01 10:20:21;;;;;;;2.03;1.83;;;;;;;23.09;78.41;100642.84;4928500;28;20059;-79
2022/08/01 10:23:02;;;;;;;5.75;5.35;;;;;;;23.03;78.84;100640.56;4942085;28;20039;-77
2022/08/01 10:25:37;;;;;;;3.20;2.25;;;;;;;22.98;78.72;100649.00;4937728;28;20577;-78
2022/08/01 10:28:16;;;;;;;2.25;2.05;;;;;;;22.74;78.39;100656.13;4934668;28;20769;-79
2022/08/01 10:30:50;;;;;;;2.13;1.63;;;;;;;22.67;78.57;100654.84;4929363;28;20042;-77
2022/08/01 10:33:22;;;;;;;1.95;1.75;;;;;;;22.53;80.10;100655.78;4916930;28;20423;-78
2022/08/01 10:36:09;;;;;;;2.00;1.70;;;;;;;22.36;81.88;100646.22;4951376;28;20047;-79
2022/08/01 10:38:37;;;;;;;10.10;2.67;;;;;;;22.51;83.89;100648.81;4935014;28;20038;-78
2022/08/01 10:41:04;;;;;;;2.10;1.75;;;;;;;22.74;79.75;100648.03;4940820;28;20072;-79
2022/08/01 10:43:35;;;;;;;2.92;1.80;;;;;;;22.81;80.21;100654.72;4932258;28;20049;-79
2022/08/01 10:46:04;;;;;;;2.08;1.70;;;;;;;23.11;79.22;100650.81;4928933;28;20035;-80
2022/08/01 10:48:46;;;;;;;2.03;1.83;;;;;;;23.35;75.65;100648.16;4951465;28;20129;-78
2022/08/01 10:51:15;;;;;;;1.75;1.65;;;;;;;23.53;77.27;100646.78;4927944;28;20054;-77
2022/08/01 10:53:50;;;;;;;1.80;1.70;;;;;;;24.06;75.12;100655.38;4947104;28;21784;-78
2022/08/01 10:56:21;;;;;;;1.95;1.75;;;;;;;24.24;72.68;100647.72;4944260;28;20062;-76
2022/08/01 10:59:03;;;;;;;29.48;5.03;;;;;;;24.16;72.21;100651.00;4959449;28;20673;-79
2022/08/01 11:01:36;;;;;;;;;;;;;;;23.61;73.79;100660.56;4934633;28;20130;-77
2022/08/01 11:04:11;;;;;;;3.30;2.40;;;;;;;23.20;77.37;100671.69;4931279;28;19969;-77
2022/08/01 11:06:45;;;;;;;2.70;2.30;;;;;;;22.86;85.60;100684.03;4956612;28;20035;-75
2022/08/01 11:09:13;;;;;;;3.55;2.40;;;;;;;22.30;92.18;100683.47;4966509;28;20039;-78
2022/08/01 11:12:01;;;;;;;2.83;2.63;;;;;;;21.85;100.00;100690.97;4968509;28;20042;-78
2022/08/01 11:14:33;;;;;;;4.07;2.75;;;;;;;21.31;100.00;100689.13;4957562;28;20039;-76
2022/08/01 11:17:41;;;;;;;3.20;2.92;;;;;;;20.85;100.00;100691.19;4946583;28;20511;-76
2022/08/01 11:20:12;;;;;;;2.78;2.53;;;;;;;20.85;100.00;100691.19;4948261;28;20035;-76
2022/08/01 11:22:58;;;;;;;3.17;2.88;;;;;;;20.97;100.00;100694.91;4943145;28;20509;-76
2022/08/01 11:25:41;;;;;;;3.25;2.60;;;;;;;21.00;100.00;100687.50;4962941;28;20055;-76
2022/08/01 11:28:29;;;;;;;3.45;3.08;;;;;;;21.19;100.00;100680.94;4967156;28;20069;-77
2022/08/01 11:31:07;;;;;;;4.63;3.05;;;;;;;21.35;100.00;100687.94;4949980;28;20424;-76
2022/08/01 11:33:39;;;;;;;3.58;3.00;;;;;;;21.51;100.00;100697.72;4972518;28;20116;-76
2022/08/01 11:36:12;;;;;;;3.33;2.92;;;;;;;21.65;100.00;100703.06;4967817;28;20046;-76
2022/08/01 11:38:49;;;;;;;2.85;2.65;;;;;;;21.58;100.00;100701.72;4941031;28;20034;-77
2022/08/01 11:41:24;;;;;;;2.53;2.33;;;;;;;21.39;100.00;100699.38;4954615;28;20035;-76
2022/08/01 11:44:15;;;;;;;2.83;2.53;;;;;;;21.34;100.00;100712.25;4958098;28;20627;-77
2022/08/01 11:46:47;;;;;;;2.40;2.20;;;;;;;21.33;100.00;100711.38;4949508;28;21045;-76
2022/08/01 11:49:25;;;;;;;2.20;2.00;;;;;;;21.29;100.00;100709.00;4966473;28;20035;-76
2022/08/01 11:52:04;;;;;;;2.28;2.08;;;;;;;21.32;100.00;100720.41;4963237;28;20105;-76
2022/08/01 11:54:43;;;;;;;2.15;1.95;;;;;;;21.38;100.00;100723.69;4950657;28;20411;-77
2022/08/01 11:57:15;;;;;;;3.33;2.00;;;;;;;21.49;100.00;100719.31;4975226;28;20086;-78
2022/08/01 11:59:45;;;;;;;2.20;1.75;;;;;;;21.53;100.00;100722.69;4973526;28;20039;-77
2022/08/01 12:02:33;;;;;;;1.90;1.70;;;;;;;21.46;100.00;100721.38;4956012;28;20070;-77
2022/08/01 12:05:03;;;;;;;2.05;1.60;;;;;;;21.51;100.00;100725.47;4971467;28;20034;-77
2022/08/01 12:07:32;;;;;;;1.50;1.40;;;;;;;21.68;100.00;100723.50;4960948;28;20066;-76
2022/08/01 12:10:09;;;;;;;1.70;1.60;;;;;;;21.72;100.00;100720.50;4964861;28;20039;-77
2022/08/01 12:12:36;;;;;;;1.60;1.50;;;;;;;21.90;100.00;100713.06;4972286;28;20431;-76
2022/08/01 12:15:08;;;;;;;2.17;1.85;;;;;;;22.06;96.75;100718.28;4973060;28;20043;-76
2022/08/01 12:17:47;;;;;;;2.47;1.60;;;;;;;22.15;95.35;100717.69;4954169;28;20062;-77
2022/08/01 12:20:27;;;;;;;1.70;1.60;;;;;;;22.55;98.07;100717.66;4969453;28;20046;-76
2022/08/01 12:22:57;;;;;;;1.85;1.67;;;;;;;22.89;89.36;100714.34;4948586;28;20043;-78
2022/08/01 12:25:24;;;;;;;1.83;1.67;;;;;;;23.07;88.33;100709.47;4979175;28;20077;-77
2022/08/01 12:27:52;;;;;;;1.90;1.80;;;;;;;23.41;84.74;100705.19;4947941;28;20436;-78
2022/08/01 12:30:23;;;;;;;2.25;1.60;;;;;;;23.67;85.34;100705.13;4980661;28;20038;-77
2022/08/01 12:32:52;;;;;;;2.10;1.90;;;;;;;23.63;79.65;100707.19;4954848;28;20047;-77
2022/08/01 12:35:24;;;;;;;2.00;1.67;;;;;;;23.32;81.12;100703.16;4951962;28;20066;-77
2022/08/01 12:37:55;;;;;;;1.60;1.50;;;;;;;23.28;84.77;100718.69;4935026;28;20035;-77
2022/08/01 12:40:26;;;;;;;1.67;1.58;;;;;;;23.29;84.96;100711.47;4938864;28;20047;-78
2022/08/01 12:43:04;;;;;;;1.70;1.60;;;;;;;23.15;84.66;100714.31;4962877;28;20046;-79
2022/08/01 12:45:36;;;;;;;1.80;1.67;;;;;;;23.14;86.55;100708.06;4958711;28;20035;-77
2022/08/01 12:48:07;;;;;;;1.92;1.70;;;;;;;23.05;84.26;100711.41;4931931;28;20134;-77
2022/08/01 12:50:37;;;;;;;1.85;1.73;;;;;;;23.00;84.67;100714.44;4939189;28;20558;-79
2022/08/01 12:53:04;;;;;;;2.13;1.58;;;;;;;22.96;84.74;100712.94;4983049;28;20042;-77
2022/08/01 12:55:32;;;;;;;1.75;1.55;;;;;;;22.84;86.48;100716.44;4926185;28;20049;-78
2022/08/01 12:58:11;;;;;;;1.70;1.60;;;;;;;22.79;84.48;100721.31;4954957;28;20069;-77
2022/08/01 13:00:43;;;;;;;1.92;1.55;;;;;;;22.53;84.51;100720.41;4949156;28;20041;-77
2022/08/01 13:03:18;;;;;;;1.73;1.63;;;;;;;22.64;87.31;100728.63;4966209;28;20034;-78
2022/08/01 13:05:48;;;;;;;2.38;1.70;;;;;;;22.66;85.10;100721.31;4955388;28;20046;-77
2022/08/01 13:08:16;;;;;;;1.83;1.55;;;;;;;22.75;84.39;100725.19;4958007;28;20035;-77